PWSweather.com
Personal Weather Stations
Station Observations

Acton, CA 93510

Lat: 34.47703, Lon: -118.17483

Elevation: 2900

Station Type: Davis Vantage Pro 2

http://www.actonastro.com/weather/current.php

Latest ConditionsUpdated 2:53:12 PM PDT Tuesday, Aug 4, 2015
Currently Today's Max Today's Min Today's Average
Temperature 91.8°F33.2°C 92.7°F33.7°C 59.9°F15.5°C 73.6°F23.1°C
Dew Point 39.2°F4.0°C 51.8°F11.0°C 32.6°F0.3°C 44.1°F6.7°C
Winds 14.0 mph W22.5 kmh W 23.0 mph SSW37.0 kmh SSW - 3.0 mph 4.8 kmh
Wind Gusts 19.0 mph30.6 kmh 23.0 mph37.0 kmh - -
Humidity 16% 66% 13% 41%
Pressure 29.71 in1006.1 mb 29.74 in1007.1 mb 29.68 in1005.1 mb -
Hour Temp Dew Point Humidity Winds Wind Gusts Pressure Precip Precip Rate Daily Precip Total
02:53 PM 91.8°F33.2°C 39.2°F4.0°C 16% 14.0 mph W22.5 kmh W 19.0 mph30.6 kmh 29.71 in1006.1 mb 0.00 in0.0 mm 0.00 in0.0 mm 0.00 in0.0 mm
02:48 PM 92.1°F33.4°C 39.4°F4.1°C 16% 11.0 mph S17.7 kmh S 19.0 mph30.6 kmh 29.71 in1006.1 mb 0.00 in0.0 mm 0.00 in0.0 mm 0.00 in0.0 mm
02:43 PM 92.1°F33.4°C 41.0°F5.0°C 17% 5.0 mph S8.0 kmh S 18.0 mph29.0 kmh 29.71 in1006.1 mb 0.00 in0.0 mm 0.00 in0.0 mm 0.00 in0.0 mm
02:38 PM 92.3°F33.5°C 39.6°F4.2°C 16% 6.0 mph SSW9.7 kmh SSW 23.0 mph37.0 kmh 29.71 in1006.1 mb 0.00 in0.0 mm 0.00 in0.0 mm 0.00 in0.0 mm
02:33 PM 92.5°F33.6°C 39.7°F4.3°C 16% 12.0 mph SSW19.3 kmh SSW 23.0 mph37.0 kmh 29.71 in1006.1 mb 0.00 in0.0 mm 0.00 in0.0 mm 0.00 in0.0 mm
02:28 PM 92.1°F33.4°C 39.4°F4.1°C 16% 11.0 mph W17.7 kmh W 23.0 mph37.0 kmh 29.71 in1006.1 mb 0.00 in0.0 mm 0.00 in0.0 mm 0.00 in0.0 mm
02:23 PM 92.3°F33.5°C 39.6°F4.2°C 16% 23.0 mph SSW37.0 kmh SSW 23.0 mph37.0 kmh 29.71 in1006.1 mb 0.00 in0.0 mm 0.00 in0.0 mm 0.00 in0.0 mm
02:18 PM 92.1°F33.4°C 39.4°F4.1°C 16% 14.0 mph SSW22.5 kmh SSW 23.0 mph37.0 kmh 29.71 in1006.1 mb 0.00 in0.0 mm 0.00 in0.0 mm 0.00 in0.0 mm
02:13 PM 92.1°F33.4°C 37.8°F3.2°C 15% 4.0 mph WSW6.4 kmh WSW 23.0 mph37.0 kmh 29.71 in1006.1 mb 0.00 in0.0 mm 0.00 in0.0 mm 0.00 in0.0 mm
02:08 PM 92.1°F33.4°C 39.4°F4.1°C 16% 12.0 mph SW19.3 kmh SW 23.0 mph37.0 kmh 29.71 in1006.1 mb 0.00 in0.0 mm 0.00 in0.0 mm 0.00 in0.0 mm
02:03 PM 92.5°F33.6°C 39.7°F4.3°C 16% 13.0 mph SW20.9 kmh SW 23.0 mph37.0 kmh 29.71 in1006.1 mb 0.00 in0.0 mm 0.00 in0.0 mm 0.00 in0.0 mm
01:58 PM 92.7°F33.7°C 38.2°F3.4°C 15% 12.0 mph SW19.3 kmh SW 18.0 mph29.0 kmh 29.71 in1006.1 mb 0.00 in0.0 mm 0.00 in0.0 mm 0.00 in0.0 mm
01:53 PM 92.5°F33.6°C 38.1°F3.4°C 15% 4.0 mph W6.4 kmh W 18.0 mph29.0 kmh 29.71 in1006.1 mb 0.00 in0.0 mm 0.00 in0.0 mm 0.00 in0.0 mm
01:48 PM 92.3°F33.5°C 41.1°F5.1°C 17% 7.0 mph WNW11.3 kmh WNW 18.0 mph29.0 kmh 29.71 in1006.1 mb 0.00 in0.0 mm 0.00 in0.0 mm 0.00 in0.0 mm
01:43 PM 92.3°F33.5°C 37.9°F3.3°C 15% 13.0 mph NW20.9 kmh NW 17.0 mph27.4 kmh 29.71 in1006.1 mb 0.00 in0.0 mm 0.00 in0.0 mm 0.00 in0.0 mm
01:38 PM 92.3°F33.5°C 39.6°F4.2°C 16% 10.0 mph WSW16.1 kmh WSW 17.0 mph27.4 kmh 29.71 in1006.1 mb 0.00 in0.0 mm 0.00 in0.0 mm 0.00 in0.0 mm
01:33 PM 92.3°F33.5°C 37.9°F3.3°C 15% 4.0 mph NNW6.4 kmh NNW 16.0 mph25.7 kmh 29.71 in1006.1 mb 0.00 in0.0 mm 0.00 in0.0 mm 0.00 in0.0 mm
01:28 PM 92.5°F33.6°C 38.1°F3.4°C 15% 7.0 mph NW11.3 kmh NW 16.0 mph25.7 kmh 29.71 in1006.1 mb 0.00 in0.0 mm 0.00 in0.0 mm 0.00 in0.0 mm
01:23 PM 92.5°F33.6°C 38.1°F3.4°C 15% 4.0 mph SW6.4 kmh SW 16.0 mph25.7 kmh 29.71 in1006.1 mb 0.00 in0.0 mm 0.00 in0.0 mm 0.00 in0.0 mm
01:18 PM 92.5°F33.6°C 38.1°F3.4°C 15% 8.0 mph WNW12.9 kmh WNW 16.0 mph25.7 kmh 29.71 in1006.1 mb 0.00 in0.0 mm 0.00 in0.0 mm 0.00 in0.0 mm
01:13 PM 92.5°F33.6°C 38.1°F3.4°C 15% 9.0 mph NW14.5 kmh NW 15.0 mph24.1 kmh 29.71 in1006.1 mb 0.00 in0.0 mm 0.00 in0.0 mm 0.00 in0.0 mm
01:08 PM 92.3°F33.5°C 37.9°F3.3°C 15% 10.0 mph WSW16.1 kmh WSW 17.0 mph27.4 kmh 29.71 in1006.1 mb 0.00 in0.0 mm 0.00 in0.0 mm 0.00 in0.0 mm
01:03 PM 92.3°F33.5°C 37.9°F3.3°C 15% 5.0 mph W8.0 kmh W 17.0 mph27.4 kmh 29.71 in1006.1 mb 0.00 in0.0 mm 0.00 in0.0 mm 0.00 in0.0 mm
12:58 PM 92.5°F33.6°C 38.1°F3.4°C 15% 10.0 mph SW16.1 kmh SW 17.0 mph27.4 kmh 29.71 in1006.1 mb 0.00 in0.0 mm 0.00 in0.0 mm 0.00 in0.0 mm
12:53 PM 92.3°F33.5°C 36.2°F2.3°C 14% 9.0 mph WNW14.5 kmh WNW 17.0 mph27.4 kmh 29.71 in1006.1 mb 0.00 in0.0 mm 0.00 in0.0 mm 0.00 in0.0 mm
12:48 PM 92.1°F33.4°C 37.8°F3.2°C 15% 6.0 mph WSW9.7 kmh WSW 15.0 mph24.1 kmh 29.71 in1006.1 mb 0.00 in0.0 mm 0.00 in0.0 mm 0.00 in0.0 mm
12:43 PM 92.1°F33.4°C 39.4°F4.1°C 16% 6.0 mph WNW9.7 kmh WNW 15.0 mph24.1 kmh 29.72 in1006.4 mb 0.00 in0.0 mm 0.00 in0.0 mm 0.00 in0.0 mm
12:38 PM 91.8°F33.2°C 37.5°F3.1°C 15% 12.0 mph NW19.3 kmh NW 15.0 mph24.1 kmh 29.72 in1006.4 mb 0.00 in0.0 mm 0.00 in0.0 mm 0.00 in0.0 mm
12:33 PM 91.6°F33.1°C 39.0°F3.9°C 16% 6.0 mph NW9.7 kmh NW 15.0 mph24.1 kmh 29.72 in1006.4 mb 0.00 in0.0 mm 0.00 in0.0 mm 0.00 in0.0 mm
12:28 PM 91.2°F32.9°C 37.1°F2.8°C 15% 6.0 mph NW9.7 kmh NW 15.0 mph24.1 kmh 29.73 in1006.8 mb 0.00 in0.0 mm 0.00 in0.0 mm 0.00 in0.0 mm
12:23 PM 91.0°F32.8°C 38.5°F3.6°C 16% 5.0 mph WNW8.0 kmh WNW 15.0 mph24.1 kmh 29.73 in1006.8 mb 0.00 in0.0 mm 0.00 in0.0 mm 0.00 in0.0 mm
12:18 PM 91.0°F32.8°C 40.1°F4.5°C 17% 13.0 mph N20.9 kmh N 15.0 mph24.1 kmh 29.73 in1006.8 mb 0.00 in0.0 mm 0.00 in0.0 mm 0.00 in0.0 mm
12:13 PM 91.0°F32.8°C 38.5°F3.6°C 16% 8.0 mph SW12.9 kmh SW 18.0 mph29.0 kmh 29.72 in1006.4 mb 0.00 in0.0 mm 0.00 in0.0 mm 0.00 in0.0 mm
12:08 PM 90.7°F32.6°C 38.3°F3.5°C 16% 5.0 mph WNW8.0 kmh WNW 18.0 mph29.0 kmh 29.72 in1006.4 mb 0.00 in0.0 mm 0.00 in0.0 mm 0.00 in0.0 mm
12:03 PM 90.5°F32.5°C 38.1°F3.4°C 16% 5.0 mph NW8.0 kmh NW 18.0 mph29.0 kmh 29.72 in1006.4 mb 0.00 in0.0 mm 0.00 in0.0 mm 0.00 in0.0 mm
11:58 AM 90.5°F32.5°C 36.5°F2.5°C 15% 7.0 mph W11.3 kmh W 18.0 mph29.0 kmh 29.73 in1006.8 mb 0.00 in0.0 mm 0.00 in0.0 mm 0.00 in0.0 mm
11:53 AM 90.7°F32.6°C 36.7°F2.6°C 15% 11.0 mph NW17.7 kmh NW 17.0 mph27.4 kmh 29.73 in1006.8 mb 0.00 in0.0 mm 0.00 in0.0 mm 0.00 in0.0 mm
11:48 AM 90.7°F32.6°C 33.1°F0.6°C 13% 11.0 mph NW17.7 kmh NW 17.0 mph27.4 kmh 29.73 in1006.8 mb 0.00 in0.0 mm 0.00 in0.0 mm 0.00 in0.0 mm
11:43 AM 90.3°F32.4°C 34.6°F1.4°C 14% 4.0 mph W6.4 kmh W 17.0 mph27.4 kmh 29.73 in1006.8 mb 0.00 in0.0 mm 0.00 in0.0 mm 0.00 in0.0 mm
11:38 AM 90.1°F32.3°C 32.6°F0.3°C 13% 5.0 mph NW8.0 kmh NW 15.0 mph24.1 kmh 29.73 in1006.8 mb 0.00 in0.0 mm 0.00 in0.0 mm 0.00 in0.0 mm
11:33 AM 90.3°F32.4°C 34.6°F1.4°C 14% 7.0 mph WNW11.3 kmh WNW 15.0 mph24.1 kmh 29.73 in1006.8 mb 0.00 in0.0 mm 0.00 in0.0 mm 0.00 in0.0 mm
11:28 AM 90.3°F32.4°C 32.8°F0.4°C 13% 9.0 mph NW14.5 kmh NW 15.0 mph24.1 kmh 29.73 in1006.8 mb 0.00 in0.0 mm 0.00 in0.0 mm 0.00 in0.0 mm
11:23 AM 90.5°F32.5°C 32.9°F0.5°C 13% 10.0 mph W16.1 kmh W 15.0 mph24.1 kmh 29.73 in1006.8 mb 0.00 in0.0 mm 0.00 in0.0 mm 0.00 in0.0 mm
11:18 AM 90.3°F32.4°C 34.6°F1.4°C 14% 3.0 mph WSW4.8 kmh WSW 14.0 mph22.5 kmh 29.73 in1006.8 mb 0.00 in0.0 mm 0.00 in0.0 mm 0.00 in0.0 mm
11:13 AM 90.1°F32.3°C 34.5°F1.4°C 14% 7.0 mph SSW11.3 kmh SSW 14.0 mph22.5 kmh 29.72 in1006.4 mb 0.00 in0.0 mm 0.00 in0.0 mm 0.00 in0.0 mm
11:08 AM 89.9°F32.2°C 34.3°F1.3°C 14% 4.0 mph W6.4 kmh W 14.0 mph22.5 kmh 29.72 in1006.4 mb 0.00 in0.0 mm 0.00 in0.0 mm 0.00 in0.0 mm
11:03 AM 89.5°F31.9°C 35.7°F2.1°C 15% 7.0 mph SW11.3 kmh SW 11.0 mph17.7 kmh 29.72 in1006.4 mb 0.00 in0.0 mm 0.00 in0.0 mm 0.00 in0.0 mm
10:58 AM 89.3°F31.8°C 35.6°F2.0°C 15% 3.0 mph W4.8 kmh W 11.0 mph17.7 kmh 29.72 in1006.4 mb 0.00 in0.0 mm 0.00 in0.0 mm 0.00 in0.0 mm
10:53 AM 88.8°F31.6°C 38.3°F3.5°C 17% 5.0 mph NW8.0 kmh NW 11.0 mph17.7 kmh 29.72 in1006.4 mb 0.00 in0.0 mm 0.00 in0.0 mm 0.00 in0.0 mm
10:48 AM 87.8°F31.0°C 36.0°F2.2°C 16% 3.0 mph W4.8 kmh W 11.0 mph17.7 kmh 29.72 in1006.4 mb 0.00 in0.0 mm 0.00 in0.0 mm 0.00 in0.0 mm
10:43 AM 87.0°F30.6°C 38.3°F3.5°C 18% 2.0 mph NW3.2 kmh NW 7.0 mph11.3 kmh 29.73 in1006.8 mb 0.00 in0.0 mm 0.00 in0.0 mm 0.00 in0.0 mm
10:38 AM 86.3°F30.2°C 39.2°F4.0°C 19% 3.0 mph WSW4.8 kmh WSW 8.0 mph12.9 kmh 29.73 in1006.8 mb 0.00 in0.0 mm 0.00 in0.0 mm 0.00 in0.0 mm
10:33 AM 86.1°F30.1°C 40.3°F4.6°C 20% 2.0 mph SW3.2 kmh SW 8.0 mph12.9 kmh 29.73 in1006.8 mb 0.00 in0.0 mm 0.00 in0.0 mm 0.00 in0.0 mm
10:28 AM 85.7°F29.8°C 44.7°F7.1°C 24% 3.0 mph SW4.8 kmh SW 8.0 mph12.9 kmh 29.72 in1006.4 mb 0.00 in0.0 mm 0.00 in0.0 mm 0.00 in0.0 mm
10:23 AM 85.3°F29.6°C 44.4°F6.9°C 24% 4.0 mph S6.4 kmh S 8.0 mph12.9 kmh 29.72 in1006.4 mb 0.00 in0.0 mm 0.00 in0.0 mm 0.00 in0.0 mm
10:18 AM 85.5°F29.7°C 42.3°F5.7°C 22% 4.0 mph SSW6.4 kmh SSW 7.0 mph11.3 kmh 29.72 in1006.4 mb 0.00 in0.0 mm 0.00 in0.0 mm 0.00 in0.0 mm
10:13 AM 85.1°F29.5°C 44.2°F6.8°C 24% 2.0 mph WSW3.2 kmh WSW 7.0 mph11.3 kmh 29.73 in1006.8 mb 0.00 in0.0 mm 0.00 in0.0 mm 0.00 in0.0 mm
10:08 AM 84.3°F29.1°C 43.5°F6.4°C 24% 4.0 mph WSW6.4 kmh WSW 7.0 mph11.3 kmh 29.73 in1006.8 mb 0.00 in0.0 mm 0.00 in0.0 mm 0.00 in0.0 mm
10:03 AM 83.8°F28.8°C 44.2°F6.8°C 25% 3.0 mph NW4.8 kmh NW 7.0 mph11.3 kmh 29.73 in1006.8 mb 0.00 in0.0 mm 0.00 in0.0 mm 0.00 in0.0 mm
09:58 AM 83.2°F28.4°C 46.7°F8.2°C 28% 3.0 mph WNW4.8 kmh WNW 7.0 mph11.3 kmh 29.73 in1006.8 mb 0.00 in0.0 mm 0.00 in0.0 mm 0.00 in0.0 mm
09:53 AM 82.6°F28.1°C 44.2°F6.8°C 26% 3.0 mph SW4.8 kmh SW 6.0 mph9.7 kmh 29.73 in1006.8 mb 0.00 in0.0 mm 0.00 in0.0 mm 0.00 in0.0 mm
09:48 AM 82.4°F28.0°C 46.0°F7.8°C 28% 3.0 mph WSW4.8 kmh WSW 5.0 mph8.0 kmh 29.73 in1006.8 mb 0.00 in0.0 mm 0.00 in0.0 mm 0.00 in0.0 mm
09:43 AM 81.8°F27.7°C 45.5°F7.5°C 28% 5.0 mph NW8.0 kmh NW 5.0 mph8.0 kmh 29.73 in1006.8 mb 0.00 in0.0 mm 0.00 in0.0 mm 0.00 in0.0 mm
09:38 AM 81.2°F27.3°C 45.9°F7.7°C 29% 5.0 mph WSW8.0 kmh WSW 5.0 mph8.0 kmh 29.73 in1006.8 mb 0.00 in0.0 mm 0.00 in0.0 mm 0.00 in0.0 mm
09:33 AM 81.1°F27.3°C 46.7°F8.2°C 30% 4.0 mph WSW6.4 kmh WSW 6.0 mph9.7 kmh 29.73 in1006.8 mb 0.00 in0.0 mm 0.00 in0.0 mm 0.00 in0.0 mm
09:28 AM 80.7°F27.1°C 47.2°F8.4°C 31% 1.0 mph WSW1.6 kmh WSW 6.0 mph9.7 kmh 29.73 in1006.8 mb 0.00 in0.0 mm 0.00 in0.0 mm 0.00 in0.0 mm
09:23 AM 80.1°F26.7°C 46.7°F8.2°C 31% 1.0 mph WNW1.6 kmh WNW 6.0 mph9.7 kmh 29.73 in1006.8 mb 0.00 in0.0 mm 0.00 in0.0 mm 0.00 in0.0 mm
09:18 AM 79.6°F26.4°C 47.9°F8.8°C 33% 1.0 mph WSW1.6 kmh WSW 6.0 mph9.7 kmh 29.73 in1006.8 mb 0.00 in0.0 mm 0.00 in0.0 mm 0.00 in0.0 mm
09:13 AM 78.8°F26.0°C 48.0°F8.9°C 34% 1.0 mph SSW1.6 kmh SSW 5.0 mph8.0 kmh 29.72 in1006.4 mb 0.00 in0.0 mm 0.00 in0.0 mm 0.00 in0.0 mm
09:08 AM 78.8°F26.0°C 47.2°F8.4°C 33% 3.0 mph SSW4.8 kmh SSW 5.0 mph8.0 kmh 29.72 in1006.4 mb 0.00 in0.0 mm 0.00 in0.0 mm 0.00 in0.0 mm
09:03 AM 78.6°F25.9°C 47.9°F8.8°C 34% 1.0 mph SW1.6 kmh SW 5.0 mph8.0 kmh 29.72 in1006.4 mb 0.00 in0.0 mm 0.00 in0.0 mm 0.00 in0.0 mm
08:58 AM 77.9°F25.5°C 48.8°F9.3°C 36% 3.0 mph SW4.8 kmh SW 5.0 mph8.0 kmh 29.73 in1006.8 mb 0.00 in0.0 mm 0.00 in0.0 mm 0.00 in0.0 mm
08:53 AM 77.4°F25.2°C 48.3°F9.1°C 36% Calm Calm 5.0 mph8.0 kmh 29.73 in1006.8 mb 0.00 in0.0 mm 0.00 in0.0 mm 0.00 in0.0 mm
08:48 AM 76.7°F24.8°C 49.2°F9.6°C 38% 1.0 mph SW1.6 kmh SW 4.0 mph6.4 kmh 29.73 in1006.8 mb 0.00 in0.0 mm 0.00 in0.0 mm 0.00 in0.0 mm
08:43 AM 76.0°F24.4°C 49.2°F9.6°C 39% 2.0 mph WSW3.2 kmh WSW 4.0 mph6.4 kmh 29.74 in1007.1 mb 0.00 in0.0 mm 0.00 in0.0 mm 0.00 in0.0 mm
08:38 AM 75.1°F23.9°C 49.8°F9.9°C 41% 2.0 mph WSW3.2 kmh WSW 5.0 mph8.0 kmh 29.74 in1007.1 mb 0.00 in0.0 mm 0.00 in0.0 mm 0.00 in0.0 mm
08:33 AM 74.4°F23.6°C 49.1°F9.5°C 41% 2.0 mph SW3.2 kmh SW 5.0 mph8.0 kmh 29.74 in1007.1 mb 0.00 in0.0 mm 0.00 in0.0 mm 0.00 in0.0 mm
08:28 AM 73.9°F23.3°C 48.7°F9.3°C 41% 1.0 mph SW1.6 kmh SW 5.0 mph8.0 kmh 29.74 in1007.1 mb 0.00 in0.0 mm 0.00 in0.0 mm 0.00 in0.0 mm
08:23 AM 73.0°F22.8°C 49.2°F9.6°C 43% 4.0 mph W6.4 kmh W 5.0 mph8.0 kmh 29.74 in1007.1 mb 0.00 in0.0 mm 0.00 in0.0 mm 0.00 in0.0 mm
08:18 AM 72.0°F22.2°C 48.9°F9.4°C 44% 1.0 mph W1.6 kmh W 5.0 mph8.0 kmh 29.74 in1007.1 mb 0.00 in0.0 mm 0.00 in0.0 mm 0.00 in0.0 mm
08:13 AM 70.9°F21.6°C 49.1°F9.5°C 46% Calm Calm 5.0 mph8.0 kmh 29.73 in1006.8 mb 0.00 in0.0 mm 0.00 in0.0 mm 0.00 in0.0 mm
08:08 AM 69.8°F21.0°C 49.2°F9.6°C 48% 1.0 mph SW1.6 kmh SW 4.0 mph6.4 kmh 29.73 in1006.8 mb 0.00 in0.0 mm 0.00 in0.0 mm 0.00 in0.0 mm
08:03 AM 68.4°F20.2°C 47.9°F8.8°C 48% 1.0 mph NE1.6 kmh NE 2.0 mph3.2 kmh 29.73 in1006.8 mb 0.00 in0.0 mm 0.00 in0.0 mm 0.00 in0.0 mm
07:58 AM 67.4°F19.7°C 47.6°F8.7°C 49% 1.0 mph NE1.6 kmh NE 2.0 mph3.2 kmh 29.73 in1006.8 mb 0.00 in0.0 mm 0.00 in0.0 mm 0.00 in0.0 mm
07:53 AM 66.9°F19.4°C 46.0°F7.8°C 47% Calm Calm 1.0 mph1.6 kmh 29.73 in1006.8 mb 0.00 in0.0 mm 0.00 in0.0 mm 0.00 in0.0 mm
07:48 AM 66.6°F19.2°C 45.7°F7.6°C 47% Calm Calm 2.0 mph3.2 kmh 29.73 in1006.8 mb 0.00 in0.0 mm 0.00 in0.0 mm 0.00 in0.0 mm
07:43 AM 66.3°F19.1°C 45.5°F7.5°C 47% 1.0 mph NE1.6 kmh NE 2.0 mph3.2 kmh 29.74 in1007.1 mb 0.00 in0.0 mm 0.00 in0.0 mm 0.00 in0.0 mm
07:38 AM 66.0°F18.9°C 45.2°F7.3°C 47% 1.0 mph NE1.6 kmh NE 1.0 mph1.6 kmh 29.74 in1007.1 mb 0.00 in0.0 mm 0.00 in0.0 mm 0.00 in0.0 mm
07:33 AM 65.6°F18.7°C 44.8°F7.1°C 47% 1.0 mph NE1.6 kmh NE 2.0 mph3.2 kmh 29.74 in1007.1 mb 0.00 in0.0 mm 0.00 in0.0 mm 0.00 in0.0 mm
07:28 AM 65.2°F18.4°C 44.5°F6.9°C 47% Calm Calm -- 29.74 in1007.1 mb 0.00 in0.0 mm 0.00 in0.0 mm 0.00 in0.0 mm
07:23 AM 64.7°F18.2°C 44.0°F6.7°C 47% Calm Calm -- 29.74 in1007.1 mb 0.00 in0.0 mm 0.00 in0.0 mm 0.00 in0.0 mm
07:18 AM 64.3°F17.9°C 43.6°F6.4°C 47% Calm Calm 3.0 mph4.8 kmh 29.74 in1007.1 mb 0.00 in0.0 mm 0.00 in0.0 mm 0.00 in0.0 mm
07:13 AM 64.0°F17.8°C 43.4°F6.3°C 47% 1.0 mph NE1.6 kmh NE 3.0 mph4.8 kmh 29.73 in1006.8 mb 0.00 in0.0 mm 0.00 in0.0 mm 0.00 in0.0 mm
07:08 AM 63.9°F17.7°C 43.3°F6.3°C 47% 1.0 mph NE1.6 kmh NE 3.0 mph4.8 kmh 29.73 in1006.8 mb 0.00 in0.0 mm 0.00 in0.0 mm 0.00 in0.0 mm
07:03 AM 63.4°F17.4°C 43.4°F6.3°C 48% 2.0 mph NE3.2 kmh NE 3.0 mph4.8 kmh 29.73 in1006.8 mb 0.00 in0.0 mm 0.00 in0.0 mm 0.00 in0.0 mm
06:58 AM 63.1°F17.3°C 44.2°F6.8°C 50% 1.0 mph NE1.6 kmh NE 2.0 mph3.2 kmh 29.73 in1006.8 mb 0.00 in0.0 mm 0.00 in0.0 mm 0.00 in0.0 mm
06:53 AM 62.6°F17.0°C 43.2°F6.2°C 49% Calm Calm 4.0 mph6.4 kmh 29.73 in1006.8 mb 0.00 in0.0 mm 0.00 in0.0 mm 0.00 in0.0 mm
06:48 AM 62.3°F16.8°C 42.9°F6.1°C 49% 2.0 mph NE3.2 kmh NE 4.0 mph6.4 kmh 29.73 in1006.8 mb 0.00 in0.0 mm 0.00 in0.0 mm 0.00 in0.0 mm
06:43 AM 62.0°F16.7°C 44.2°F6.8°C 52% 3.0 mph NE4.8 kmh NE 4.0 mph6.4 kmh 29.74 in1007.1 mb 0.00 in0.0 mm 0.00 in0.0 mm 0.00 in0.0 mm
06:38 AM 61.2°F16.2°C 43.9°F6.6°C 53% 1.0 mph NNE1.6 kmh NNE 1.0 mph1.6 kmh 29.74 in1007.1 mb 0.00 in0.0 mm 0.00 in0.0 mm 0.00 in0.0 mm
06:33 AM 60.5°F15.8°C 43.3°F6.3°C 53% Calm Calm 2.0 mph3.2 kmh 29.74 in1007.1 mb 0.00 in0.0 mm 0.00 in0.0 mm 0.00 in0.0 mm
06:28 AM 60.2°F15.7°C 43.0°F6.1°C 53% 1.0 mph NNE1.6 kmh NNE 2.0 mph3.2 kmh 29.73 in1006.8 mb 0.00 in0.0 mm 0.00 in0.0 mm 0.00 in0.0 mm
06:23 AM 60.1°F15.6°C 42.9°F6.1°C 53% 1.0 mph NNE1.6 kmh NNE 2.0 mph3.2 kmh 29.73 in1006.8 mb 0.00 in0.0 mm 0.00 in0.0 mm 0.00 in0.0 mm
06:18 AM 59.9°F15.5°C 43.2°F6.2°C 54% 1.0 mph NNE1.6 kmh NNE 2.0 mph3.2 kmh 29.73 in1006.8 mb 0.00 in0.0 mm 0.00 in0.0 mm 0.00 in0.0 mm
06:13 AM 59.9°F15.5°C 43.7°F6.5°C 55% Calm Calm -- 29.72 in1006.4 mb 0.00 in0.0 mm 0.00 in0.0 mm 0.00 in0.0 mm
06:08 AM 59.9°F15.5°C 42.7°F5.9°C 53% Calm Calm -- 29.72 in1006.4 mb 0.00 in0.0 mm 0.00 in0.0 mm 0.00 in0.0 mm
06:03 AM 59.9°F15.5°C 42.7°F5.9°C 53% 1.0 mph NNE1.6 kmh NNE 4.0 mph6.4 kmh 29.72 in1006.4 mb 0.00 in0.0 mm 0.00 in0.0 mm 0.00 in0.0 mm
05:58 AM 60.1°F15.6°C 42.4°F5.8°C 52% 2.0 mph NNE3.2 kmh NNE 2.0 mph3.2 kmh 29.71 in1006.1 mb 0.00 in0.0 mm 0.00 in0.0 mm 0.00 in0.0 mm
05:53 AM 60.2°F15.7°C 42.5°F5.8°C 52% 1.0 mph NNE1.6 kmh NNE 2.0 mph3.2 kmh 29.71 in1006.1 mb 0.00 in0.0 mm 0.00 in0.0 mm 0.00 in0.0 mm
05:48 AM 60.4°F15.8°C 42.2°F5.7°C 51% 1.0 mph NNE1.6 kmh NNE 1.0 mph1.6 kmh 29.71 in1006.1 mb 0.00 in0.0 mm 0.00 in0.0 mm 0.00 in0.0 mm
05:43 AM 60.7°F15.9°C 42.5°F5.8°C 51% Calm Calm 2.0 mph3.2 kmh 29.71 in1006.1 mb 0.00 in0.0 mm 0.00 in0.0 mm 0.00 in0.0 mm
05:38 AM 60.7°F15.9°C 41.9°F5.5°C 50% Calm Calm 3.0 mph4.8 kmh 29.71 in1006.1 mb 0.00 in0.0 mm 0.00 in0.0 mm 0.00 in0.0 mm
05:33 AM 60.9°F16.1°C 42.6°F5.9°C 51% Calm Calm 3.0 mph4.8 kmh 29.71 in1006.1 mb 0.00 in0.0 mm 0.00 in0.0 mm 0.00 in0.0 mm
05:28 AM 61.0°F16.1°C 42.7°F5.9°C 51% Calm Calm -- 29.71 in1006.1 mb 0.00 in0.0 mm 0.00 in0.0 mm 0.00 in0.0 mm
05:23 AM 60.7°F15.9°C 43.0°F6.1°C 52% 2.0 mph NNE3.2 kmh NNE 4.0 mph6.4 kmh 29.71 in1006.1 mb 0.00 in0.0 mm 0.00 in0.0 mm 0.00 in0.0 mm
05:18 AM 60.4°F15.8°C 43.2°F6.2°C 53% 3.0 mph NNE4.8 kmh NNE 3.0 mph4.8 kmh 29.71 in1006.1 mb 0.00 in0.0 mm 0.00 in0.0 mm 0.00 in0.0 mm
05:13 AM 60.2°F15.7°C 43.0°F6.1°C 53% 2.0 mph NNE3.2 kmh NNE 3.0 mph4.8 kmh 29.70 in1005.8 mb 0.00 in0.0 mm 0.00 in0.0 mm 0.00 in0.0 mm
05:08 AM 60.4°F15.8°C 42.7°F5.9°C 52% Calm Calm -- 29.70 in1005.8 mb 0.00 in0.0 mm 0.00 in0.0 mm 0.00 in0.0 mm
05:03 AM 60.4°F15.8°C 42.2°F5.7°C 51% Calm Calm -- 29.70 in1005.8 mb 0.00 in0.0 mm 0.00 in0.0 mm 0.00 in0.0 mm
04:58 AM 60.5°F15.8°C 42.3°F5.7°C 51% Calm Calm -- 29.70 in1005.8 mb 0.00 in0.0 mm 0.00 in0.0 mm 0.00 in0.0 mm
04:53 AM 60.5°F15.8°C 42.3°F5.7°C 51% Calm Calm 1.0 mph1.6 kmh 29.70 in1005.8 mb 0.00 in0.0 mm 0.00 in0.0 mm 0.00 in0.0 mm
04:48 AM 60.5°F15.8°C 43.3°F6.3°C 53% Calm Calm -- 29.70 in1005.8 mb 0.00 in0.0 mm 0.00 in0.0 mm 0.00 in0.0 mm
04:43 AM 60.5°F15.8°C 43.3°F6.3°C 53% Calm Calm 1.0 mph1.6 kmh 29.71 in1006.1 mb 0.00 in0.0 mm 0.00 in0.0 mm 0.00 in0.0 mm
04:38 AM 60.4°F15.8°C 43.2°F6.2°C 53% Calm Calm 1.0 mph1.6 kmh 29.71 in1006.1 mb 0.00 in0.0 mm 0.00 in0.0 mm 0.00 in0.0 mm
04:33 AM 60.4°F15.8°C 43.2°F6.2°C 53% 1.0 mph NNE1.6 kmh NNE 1.0 mph1.6 kmh 29.71 in1006.1 mb 0.00 in0.0 mm 0.00 in0.0 mm 0.00 in0.0 mm
04:28 AM 60.4°F15.8°C 43.2°F6.2°C 53% Calm Calm -- 29.70 in1005.8 mb 0.00 in0.0 mm 0.00 in0.0 mm 0.00 in0.0 mm
04:23 AM 60.5°F15.8°C 43.8°F6.6°C 54% 1.0 mph NNE1.6 kmh NNE 1.0 mph1.6 kmh 29.70 in1005.8 mb 0.00 in0.0 mm 0.00 in0.0 mm 0.00 in0.0 mm
04:18 AM 60.5°F15.8°C 44.2°F6.8°C 55% Calm Calm -- 29.70 in1005.8 mb 0.00 in0.0 mm 0.00 in0.0 mm 0.00 in0.0 mm
04:13 AM 60.5°F15.8°C 43.8°F6.6°C 54% Calm Calm 1.0 mph1.6 kmh 29.70 in1005.8 mb 0.00 in0.0 mm 0.00 in0.0 mm 0.00 in0.0 mm
04:08 AM 60.5°F15.8°C 44.7°F7.1°C 56% Calm Calm 4.0 mph6.4 kmh 29.70 in1005.8 mb 0.00 in0.0 mm 0.00 in0.0 mm 0.00 in0.0 mm
04:03 AM 60.4°F15.8°C 46.0°F7.8°C 59% 2.0 mph NNE3.2 kmh NNE 4.0 mph6.4 kmh 29.70 in1005.8 mb 0.00 in0.0 mm 0.00 in0.0 mm 0.00 in0.0 mm
03:58 AM 60.4°F15.8°C 48.2°F9.0°C 64% 1.0 mph N1.6 kmh N 4.0 mph6.4 kmh 29.69 in1005.4 mb 0.00 in0.0 mm 0.00 in0.0 mm 0.00 in0.0 mm
03:53 AM 60.5°F15.8°C 48.7°F9.3°C 65% Calm Calm -- 29.69 in1005.4 mb 0.00 in0.0 mm 0.00 in0.0 mm 0.00 in0.0 mm
03:48 AM 60.9°F16.1°C 49.1°F9.5°C 65% Calm Calm -- 29.69 in1005.4 mb 0.00 in0.0 mm 0.00 in0.0 mm 0.00 in0.0 mm
03:43 AM 61.2°F16.2°C 49.3°F9.6°C 65% Calm Calm -- 29.69 in1005.4 mb 0.00 in0.0 mm 0.00 in0.0 mm 0.00 in0.0 mm
03:38 AM 61.3°F16.3°C 49.8°F9.9°C 66% Calm Calm -- 29.69 in1005.4 mb 0.00 in0.0 mm 0.00 in0.0 mm 0.00 in0.0 mm
03:33 AM 61.5°F16.4°C 50.0°F10.0°C 66% Calm Calm -- 29.69 in1005.4 mb 0.00 in0.0 mm 0.00 in0.0 mm 0.00 in0.0 mm
03:28 AM 61.5°F16.4°C 50.0°F10.0°C 66% Calm Calm -- 29.69 in1005.4 mb 0.00 in0.0 mm 0.00 in0.0 mm 0.00 in0.0 mm
03:23 AM 61.6°F16.4°C 50.1°F10.1°C 66% Calm Calm -- 29.69 in1005.4 mb 0.00 in0.0 mm 0.00 in0.0 mm 0.00 in0.0 mm
03:18 AM 61.6°F16.4°C 49.7°F9.8°C 65% Calm Calm -- 29.69 in1005.4 mb 0.00 in0.0 mm 0.00 in0.0 mm 0.00 in0.0 mm
03:13 AM 61.6°F16.4°C 49.7°F9.8°C 65% Calm Calm -- 29.68 in1005.1 mb 0.00 in0.0 mm 0.00 in0.0 mm 0.00 in0.0 mm
03:08 AM 61.6°F16.4°C 49.7°F9.8°C 65% Calm Calm -- 29.68 in1005.1 mb 0.00 in0.0 mm 0.00 in0.0 mm 0.00 in0.0 mm
03:03 AM 61.6°F16.4°C 49.7°F9.8°C 65% Calm Calm -- 29.68 in1005.1 mb 0.00 in0.0 mm 0.00 in0.0 mm 0.00 in0.0 mm
02:58 AM 61.8°F16.6°C 49.9°F9.9°C 65% 1.0 mph NNW1.6 kmh NNW 2.0 mph3.2 kmh 29.68 in1005.1 mb 0.00 in0.0 mm 0.00 in0.0 mm 0.00 in0.0 mm
02:53 AM 61.8°F16.6°C 49.9°F9.9°C 65% Calm Calm -- 29.68 in1005.1 mb 0.00 in0.0 mm 0.00 in0.0 mm 0.00 in0.0 mm
02:48 AM 62.0°F16.7°C 50.1°F10.1°C 65% Calm Calm -- 29.68 in1005.1 mb 0.00 in0.0 mm 0.00 in0.0 mm 0.00 in0.0 mm
02:43 AM 62.0°F16.7°C 49.7°F9.8°C 64% Calm Calm -- 29.69 in1005.4 mb 0.00 in0.0 mm 0.00 in0.0 mm 0.00 in0.0 mm
02:38 AM 62.0°F16.7°C 49.3°F9.6°C 63% Calm Calm 3.0 mph4.8 kmh 29.69 in1005.4 mb 0.00 in0.0 mm 0.00 in0.0 mm 0.00 in0.0 mm
02:33 AM 62.1°F16.7°C 49.3°F9.6°C 63% 2.0 mph NNW3.2 kmh NNW 2.0 mph3.2 kmh 29.69 in1005.4 mb 0.00 in0.0 mm 0.00 in0.0 mm 0.00 in0.0 mm
02:28 AM 62.1°F16.7°C 48.9°F9.4°C 62% Calm Calm -- 29.70 in1005.8 mb 0.00 in0.0 mm 0.00 in0.0 mm 0.00 in0.0 mm
02:23 AM 62.1°F16.7°C 48.0°F8.9°C 60% Calm Calm -- 29.70 in1005.8 mb 0.00 in0.0 mm 0.00 in0.0 mm 0.00 in0.0 mm
02:18 AM 62.1°F16.7°C 47.6°F8.7°C 59% Calm Calm 1.0 mph1.6 kmh 29.70 in1005.8 mb 0.00 in0.0 mm 0.00 in0.0 mm 0.00 in0.0 mm
02:13 AM 62.1°F16.7°C 47.1°F8.4°C 58% Calm Calm -- 29.69 in1005.4 mb 0.00 in0.0 mm 0.00 in0.0 mm 0.00 in0.0 mm
02:08 AM 62.1°F16.7°C 47.1°F8.4°C 58% Calm Calm -- 29.69 in1005.4 mb 0.00 in0.0 mm 0.00 in0.0 mm 0.00 in0.0 mm
02:03 AM 62.3°F16.8°C 47.8°F8.8°C 59% 1.0 mph NNW1.6 kmh NNW 2.0 mph3.2 kmh 29.69 in1005.4 mb 0.00 in0.0 mm 0.00 in0.0 mm 0.00 in0.0 mm
01:58 AM 62.3°F16.8°C 48.2°F9.0°C 60% Calm Calm -- 29.68 in1005.1 mb 0.00 in0.0 mm 0.00 in0.0 mm 0.00 in0.0 mm
01:53 AM 62.6°F17.0°C 49.0°F9.4°C 61% Calm Calm -- 29.68 in1005.1 mb 0.00 in0.0 mm 0.00 in0.0 mm 0.00 in0.0 mm
01:48 AM 62.7°F17.1°C 49.1°F9.5°C 61% Calm Calm -- 29.68 in1005.1 mb 0.00 in0.0 mm 0.00 in0.0 mm 0.00 in0.0 mm
01:43 AM 62.7°F17.1°C 49.1°F9.5°C 61% Calm Calm 2.0 mph3.2 kmh 29.68 in1005.1 mb 0.00 in0.0 mm 0.00 in0.0 mm 0.00 in0.0 mm
01:38 AM 62.9°F17.2°C 49.2°F9.6°C 61% Calm Calm -- 29.68 in1005.1 mb 0.00 in0.0 mm 0.00 in0.0 mm 0.00 in0.0 mm
01:33 AM 63.1°F17.3°C 49.9°F9.9°C 62% Calm Calm 4.0 mph6.4 kmh 29.68 in1005.1 mb 0.00 in0.0 mm 0.00 in0.0 mm 0.00 in0.0 mm
01:28 AM 63.1°F17.3°C 50.3°F10.2°C 63% 2.0 mph NNW3.2 kmh NNW 4.0 mph6.4 kmh 29.68 in1005.1 mb 0.00 in0.0 mm 0.00 in0.0 mm 0.00 in0.0 mm
01:23 AM 63.2°F17.3°C 50.8°F10.4°C 64% 1.0 mph NNW1.6 kmh NNW 2.0 mph3.2 kmh 29.68 in1005.1 mb 0.00 in0.0 mm 0.00 in0.0 mm 0.00 in0.0 mm
01:18 AM 63.4°F17.4°C 51.0°F10.6°C 64% Calm Calm -- 29.68 in1005.1 mb 0.00 in0.0 mm 0.00 in0.0 mm 0.00 in0.0 mm
01:13 AM 63.5°F17.5°C 50.7°F10.4°C 63% Calm Calm -- 29.69 in1005.4 mb 0.00 in0.0 mm 0.00 in0.0 mm 0.00 in0.0 mm
01:08 AM 63.5°F17.5°C 50.7°F10.4°C 63% Calm Calm -- 29.69 in1005.4 mb 0.00 in0.0 mm 0.00 in0.0 mm 0.00 in0.0 mm
01:03 AM 63.7°F17.6°C 50.4°F10.2°C 62% Calm Calm -- 29.69 in1005.4 mb 0.00 in0.0 mm 0.00 in0.0 mm 0.00 in0.0 mm
12:58 AM 63.9°F17.7°C 50.6°F10.3°C 62% Calm Calm -- 29.68 in1005.1 mb 0.00 in0.0 mm 0.00 in0.0 mm 0.00 in0.0 mm
12:53 AM 64.0°F17.8°C 50.3°F10.2°C 61% Calm Calm -- 29.68 in1005.1 mb 0.00 in0.0 mm 0.00 in0.0 mm 0.00 in0.0 mm
12:48 AM 64.3°F17.9°C 50.6°F10.3°C 61% Calm Calm 1.0 mph1.6 kmh 29.68 in1005.1 mb 0.00 in0.0 mm 0.00 in0.0 mm 0.00 in0.0 mm
12:43 AM 64.5°F18.1°C 50.7°F10.4°C 61% 1.0 mph NNW1.6 kmh NNW 3.0 mph4.8 kmh 29.68 in1005.1 mb 0.00 in0.0 mm 0.00 in0.0 mm 0.00 in0.0 mm
12:38 AM 64.7°F18.2°C 50.9°F10.5°C 61% 2.0 mph NNW3.2 kmh NNW 3.0 mph4.8 kmh 29.68 in1005.1 mb 0.00 in0.0 mm 0.00 in0.0 mm 0.00 in0.0 mm
12:33 AM 64.8°F18.2°C 50.6°F10.3°C 60% Calm Calm -- 29.68 in1005.1 mb 0.00 in0.0 mm 0.00 in0.0 mm 0.00 in0.0 mm
12:28 AM 65.0°F18.3°C 50.8°F10.4°C 60% Calm Calm 3.0 mph4.8 kmh 29.68 in1005.1 mb 0.00 in0.0 mm 0.00 in0.0 mm 0.00 in0.0 mm
12:23 AM 65.2°F18.4°C 51.4°F10.8°C 61% 2.0 mph NNW3.2 kmh NNW 3.0 mph4.8 kmh 29.68 in1005.1 mb 0.00 in0.0 mm 0.00 in0.0 mm 0.00 in0.0 mm
12:18 AM 65.3°F18.5°C 51.1°F10.6°C 60% 2.0 mph NNW3.2 kmh NNW 3.0 mph4.8 kmh 29.68 in1005.1 mb 0.00 in0.0 mm 0.00 in0.0 mm 0.00 in0.0 mm
12:13 AM 65.6°F18.7°C 51.3°F10.7°C 60% Calm Calm -- 29.68 in1005.1 mb 0.00 in0.0 mm 0.00 in0.0 mm 0.00 in0.0 mm
12:08 AM 66.0°F18.9°C 51.7°F10.9°C 60% Calm Calm -- 29.68 in1005.1 mb 0.00 in0.0 mm 0.00 in0.0 mm 0.00 in0.0 mm
12:03 AM 66.1°F18.9°C 51.8°F11.0°C 60% 1.0 mph NNW1.6 kmh NNW 3.0 mph4.8 kmh 29.68 in1005.1 mb 0.00 in0.0 mm 0.00 in0.0 mm 0.00 in0.0 mm